createdAt,value
2022-11-08T01:27:12.339Z,29.02
2022-11-08T01:35:17.858Z,33.50
2022-11-08T01:43:44.137Z,32.05
2022-11-08T01:51:58.975Z,31.30
2022-11-08T02:00:13.726Z,30.67
2022-11-08T02:08:26.038Z,32.95
2022-11-08T02:16:33.879Z,31.90
2022-11-08T02:24:43.302Z,31.27
2022-11-08T02:32:49.021Z,29.00
2022-11-08T02:40:59.358Z,26.52
2022-11-08T02:49:05.678Z,24.33
2022-11-08T02:57:14.060Z,25.42
2022-11-08T03:05:20.692Z,27.88
2022-11-08T03:13:28.606Z,29.23
2022-11-08T03:21:33.994Z,27.83
2022-11-08T03:29:41.989Z,25.83
2022-11-08T03:37:53.974Z,24.98
2022-11-08T03:46:02.200Z,23.17
2022-11-08T03:54:08.076Z,25.90
2022-11-08T04:02:16.099Z,23.92
2022-11-08T04:10:21.705Z,22.40
2022-11-08T04:18:41.980Z,22.10
2022-11-08T04:26:47.424Z,26.58
2022-11-08T04:34:55.481Z,25.05
2022-11-08T04:43:00.998Z,26.58
2022-11-08T04:51:11.084Z,24.13
2022-11-08T04:59:16.352Z,24.48
2022-11-08T05:07:24.327Z,26.75
2022-11-08T05:15:30.189Z,30.73
2022-11-08T05:23:38.200Z,29.33
2022-11-08T05:31:43.520Z,31.20
2022-11-08T05:39:51.480Z,31.08
2022-11-08T05:47:57.906Z,34.72
2022-11-08T05:56:06.696Z,34.78
2022-11-08T06:04:12.312Z,34.33
2022-11-08T06:12:20.326Z,39.63
2022-11-08T06:20:25.600Z,39.92
2022-11-08T06:28:33.571Z,38.63
2022-11-08T06:36:39.053Z,37.70
2022-11-08T06:44:47.295Z,39.30
2022-11-08T06:52:58.981Z,41.30
2022-11-08T07:01:10.786Z,44.85
2022-11-08T07:09:16.415Z,43.03
2022-11-08T07:17:24.276Z,38.63
2022-11-08T07:25:30.662Z,37.95
2022-11-08T07:33:39.055Z,36.20
2022-11-08T07:41:45.458Z,35.50
2022-11-08T07:49:53.483Z,34.25
2022-11-08T07:58:03.134Z,32.45
2022-11-08T08:06:11.158Z,35.25
2022-11-08T08:14:17.737Z,30.50
2022-11-08T08:22:25.529Z,34.92
2022-11-08T08:30:32.121Z,32.45
2022-11-08T08:38:44.381Z,33.38
2022-11-08T08:46:50.287Z,32.20
2022-11-08T08:54:58.340Z,30.08
2022-11-08T09:03:06.889Z,29.08
2022-11-08T09:11:14.920Z,27.92
2022-11-08T09:19:20.397Z,25.42
2022-11-08T09:27:28.635Z,24.63
2022-11-08T09:35:34.697Z,27.42
2022-11-08T09:44:01.560Z,26.60
2022-11-08T09:52:08.938Z,23.98
2022-11-08T10:00:21.913Z,25.10
2022-11-08T10:08:34.945Z,26.10
2022-11-08T10:16:58.426Z,24.33
2022-11-08T10:25:05.614Z,22.67
2022-11-08T10:33:21.054Z,22.30
2022-11-08T10:41:33.605Z,21.25
2022-11-08T10:49:44.796Z,22.52
2022-11-08T10:57:50.042Z,24.45
2022-11-08T11:06:03.646Z,23.70
2022-11-08T11:14:19.438Z,23.02
2022-11-08T11:22:33.532Z,24.42
2022-11-08T11:30:41.731Z,25.13
2022-11-08T11:38:55.122Z,23.08
2022-11-08T11:55:18.595Z,22.33
2022-11-08T12:03:45.171Z,24.85
2022-11-08T12:12:03.949Z,24.52
2022-11-08T12:20:35.165Z,22.90
2022-11-08T12:28:54.387Z,22.77
2022-11-08T12:37:11.142Z,23.38
2022-11-08T12:45:35.802Z,22.73
2022-11-08T12:53:56.157Z,22.42
2022-11-08T13:02:05.499Z,22.40
2022-11-08T13:10:26.295Z,20.88
2022-11-08T13:18:47.383Z,22.80
2022-11-08T13:26:59.131Z,20.30
2022-11-08T13:35:17.058Z,22.27
2022-11-08T13:43:33.466Z,21.75
2022-11-08T13:51:42.206Z,23.27
2022-11-08T14:00:02.277Z,20.75
2022-11-08T14:08:25.802Z,20.60
2022-11-08T14:16:38.551Z,23.45
2022-11-08T14:24:47.071Z,21.33
2022-11-08T14:33:07.666Z,19.20
2022-11-08T14:41:28.352Z,18.25
2022-11-08T14:49:38.316Z,19.67
2022-11-08T14:57:48.584Z,19.63
2022-11-08T15:06:02.150Z,19.20
2022-11-08T15:14:24.073Z,19.95
2022-11-08T15:22:32.209Z,19.48
2022-11-08T15:30:43.781Z,17.73
2022-11-08T15:38:52.303Z,18.98
2022-11-08T15:47:14.356Z,18.40
2022-11-08T15:55:42.998Z,21.30
2022-11-08T16:03:52.759Z,22.15
2022-11-08T16:12:00.900Z,23.92
2022-11-08T16:20:23.101Z,24.35
2022-11-08T16:28:34.408Z,25.27
2022-11-08T16:36:42.426Z,26.63
2022-11-08T16:44:47.824Z,25.30
2022-11-08T16:52:56.438Z,28.58
2022-11-08T17:01:05.024Z,25.85
2022-11-08T17:09:17.059Z,25.03
2022-11-08T17:17:22.341Z,25.27
2022-11-08T17:25:30.198Z,28.77
2022-11-08T17:33:35.754Z,30.45
2022-11-08T17:41:43.775Z,31.65
2022-11-08T17:49:49.299Z,36.88
2022-11-08T17:57:57.169Z,39.03
2022-11-08T18:06:04.335Z,40.20
2022-11-08T18:14:12.452Z,32.42
2022-11-08T18:22:17.883Z,32.25
2022-11-08T18:30:26.502Z,31.58
2022-11-08T18:38:31.956Z,29.60
2022-11-08T18:46:43.251Z,39.25
2022-11-08T18:54:49.214Z,47.95
2022-11-08T19:02:57.688Z,35.95
2022-11-08T19:11:06.383Z,34.97
2022-11-08T19:19:16.942Z,40.08
2022-11-08T19:27:23.177Z,30.10
2022-11-08T19:35:31.315Z,27.48
2022-11-08T19:43:37.911Z,27.92
2022-11-08T19:51:46.128Z,25.95
2022-11-08T19:59:51.875Z,26.50
2022-11-08T20:08:01.586Z,27.15
2022-11-08T20:16:13.067Z,27.65
2022-11-08T20:24:21.652Z,28.98
2022-11-08T20:32:27.189Z,28.70
2022-11-08T20:40:35.372Z,32.22
2022-11-08T20:48:42.935Z,30.77
2022-11-08T20:56:51.186Z,32.95
2022-11-08T21:04:56.916Z,33.60
2022-11-08T21:13:05.016Z,36.13
2022-11-08T21:21:12.594Z,37.63
2022-11-08T21:29:20.773Z,36.85
2022-11-08T21:37:28.709Z,35.92
2022-11-08T21:45:41.172Z,37.08
2022-11-08T21:53:53.987Z,35.83
2022-11-08T22:02:05.028Z,37.03
2022-11-08T22:10:12.944Z,34.90
2022-11-08T22:18:31.138Z,33.80
2022-11-08T22:26:46.772Z,28.58
2022-11-08T22:34:55.041Z,27.98
2022-11-08T22:43:00.549Z,30.85
2022-11-08T22:51:08.907Z,30.73
2022-11-08T22:59:14.693Z,36.80
2022-11-08T23:07:22.859Z,29.70
2022-11-08T23:15:49.884Z,29.13
2022-11-08T23:24:15.372Z,28.83
2022-11-08T23:32:20.881Z,28.95
2022-11-08T23:40:41.451Z,27.17
2022-11-08T23:48:47.021Z,24.48
2022-11-08T23:56:55.625Z,22.90
